Time;durP1;ratioP1;P1;durP2;ratioP2;P2;SDS_P1;SDS_P2;PMS_P1;PMS_P2;Temp;Humidity;BMP_temperature;BMP_pressure;BME280_temperature;BME280_humidity;BME280_pressure;Samples;Min_cycle;Max_cycle;Signal;HPM_P1;HPM_P2
2023/01/03 00:00:40;;;;;;;0.75;0.43;;;;;;;;;;5046804;28;20051;-60
2023/01/03 00:03:13;;;;;;;1.35;0.20;;;;;;;;;;5055475;28;20404;-60
2023/01/03 00:05:42;;;;;;;2.20;0.40;;;;;;;;;;5051972;28;20057;-60
2023/01/03 00:08:11;;;;;;;0.17;0.17;;;;;;;;;;5050449;28;20044;-60
2023/01/03 00:10:41;;;;;;;0.20;0.20;;;;;;;;;;5052539;28;20525;-60
2023/01/03 00:13:08;;;;;;;1.23;0.38;;;;;;;;;;5048875;28;20504;-60
2023/01/03 00:15:37;;;;;;;0.47;0.38;;;;;;;;;;5056359;28;20378;-60
2023/01/03 00:18:05;;;;;;;2.35;0.70;;;;;;;;;;5050106;28;20599;-60
2023/01/03 00:20:34;;;;;;;0.17;0.17;;;;;;;;;;5051352;28;20072;-60
2023/01/03 00:23:02;;;;;;;0.50;0.50;;;;;;;;;;5047445;28;20049;-61
2023/01/03 00:25:30;;;;;;;0.73;0.22;;;;;;;;;;5048652;28;20048;-61
2023/01/03 00:28:00;;;;;;;0.60;0.30;;;;;;;;;;5047120;28;20056;-60
2023/01/03 00:30:28;;;;;;;1.95;0.50;;;;;;;;;;5048216;28;20068;-60
2023/01/03 00:32:56;;;;;;;0.30;0.30;;;;;;;;;;5054726;28;20049;-61
2023/01/03 00:35:25;;;;;;;0.28;0.28;;;;;;;;;;5049441;28;20055;-60
2023/01/03 00:37:53;;;;;;;18.33;0.47;;;;;;;;;;5049393;28;20045;-60
2023/01/03 00:40:21;;;;;;;2.47;0.93;;;;;;;;;;5052034;28;20053;-61
2023/01/03 00:45:37;;;;;;;0.20;0.20;;;;;;;;;;5048876;28;20097;-61
2023/01/03 00:48:05;;;;;;;1.40;0.52;;;;;;;;;;5043083;28;20048;-60
2023/01/03 00:50:37;;;;;;;1.70;0.43;;;;;;;;;;5051831;28;20049;-60
2023/01/03 00:53:05;;;;;;;0.35;0.35;;;;;;;;;;5049439;28;20044;-60
2023/01/03 00:55:35;;;;;;;1.55;0.65;;;;;;;;;;5047562;28;20069;-60
2023/01/03 00:58:03;;;;;;;2.13;0.40;;;;;;;;;;5050013;28;20045;-60
2023/01/03 01:00:31;;;;;;;1.42;0.35;;;;;;;;;;5052165;28;20049;-60
2023/01/03 01:03:01;;;;;;;0.55;0.45;;;;;;;;;;5053997;28;20061;-60
2023/01/03 01:05:30;;;;;;;0.88;0.60;;;;;;;;;;5048127;28;20072;-60
2023/01/03 01:07:58;;;;;;;0.28;0.28;;;;;;;;;;5044688;28;20144;-60
2023/01/03 01:10:26;;;;;;;3.33;0.38;;;;;;;;;;5051249;28;20053;-60
2023/01/03 01:12:55;;;;;;;0.20;0.20;;;;;;;;;;5047234;28;20045;-61
2023/01/03 01:15:24;;;;;;;0.73;0.30;;;;;;;;;;5052068;28;20060;-60
2023/01/03 01:17:52;;;;;;;4.28;0.38;;;;;;;;;;5049266;28;20053;-60
2023/01/03 01:20:22;;;;;;;0.38;0.20;;;;;;;;;;5050949;28;20056;-60
2023/01/03 01:22:50;;;;;;;0.35;0.28;;;;;;;;;;5048046;28;20045;-61
2023/01/03 01:25:18;;;;;;;0.20;0.20;;;;;;;;;;5050152;28;20057;-60
2023/01/03 01:27:46;;;;;;;1.48;0.93;;;;;;;;;;5046736;28;20053;-60
2023/01/03 01:30:15;;;;;;;3.40;0.30;;;;;;;;;;5060436;28;20529;-60
2023/01/03 01:32:43;;;;;;;0.45;0.28;;;;;;;;;;5047492;28;20055;-60
2023/01/03 01:35:11;;;;;;;0.32;0.32;;;;;;;;;;5047674;28;20080;-60
2023/01/03 01:37:41;;;;;;;0.50;0.50;;;;;;;;;;5048727;28;20064;-60
2023/01/03 01:40:10;;;;;;;0.25;0.25;;;;;;;;;;5051157;28;20055;-60
2023/01/03 01:45:24;;;;;;;0.25;0.20;;;;;;;;;;5048491;28;20505;-60
2023/01/03 01:47:54;;;;;;;0.10;0.10;;;;;;;;;;5046506;28;20503;-61
2023/01/03 01:50:24;;;;;;;0.50;0.45;;;;;;;;;;5035901;28;20045;-60
2023/01/03 01:52:56;;;;;;;3.50;0.30;;;;;;;;;;5050906;28;20052;-60
2023/01/03 01:55:26;;;;;;;1.27;0.40;;;;;;;;;;5047389;28;20053;-61
2023/01/03 01:57:54;;;;;;;1.13;0.38;;;;;;;;;;5044570;28;20443;-60
2023/01/03 02:00:23;;;;;;;0.40;0.40;;;;;;;;;;5051140;28;20055;-60
2023/01/03 02:02:52;;;;;;;0.35;0.35;;;;;;;;;;5045914;28;20049;-60
2023/01/03 02:05:22;;;;;;;0.45;0.20;;;;;;;;;;5045489;28;20069;-60
2023/01/03 02:07:51;;;;;;;1.00;0.40;;;;;;;;;;5049759;28;20053;-61
2023/01/03 02:10:24;;;;;;;0.35;0.20;;;;;;;;;;5049176;28;20118;-60
2023/01/03 02:13:06;;;;;;;0.15;0.15;;;;;;;;;;5047776;28;20049;-60
2023/01/03 02:15:58;;;;;;;0.32;0.20;;;;;;;;;;5049002;28;20048;-60
2023/01/03 02:18:36;;;;;;;0.10;0.10;;;;;;;;;;5031975;28;20049;-61
2023/01/03 02:21:13;;;;;;;0.68;0.40;;;;;;;;;;5045766;28;20047;-60
2023/01/03 02:24:06;;;;;;;0.98;0.50;;;;;;;;;;5048781;28;20056;-60
2023/01/03 02:26:40;;;;;;;0.68;0.68;;;;;;;;;;5051102;28;20073;-60
2023/01/03 02:29:35;;;;;;;0.43;0.40;;;;;;;;;;5047062;28;20110;-60
2023/01/03 02:32:10;;;;;;;0.20;0.20;;;;;;;;;;5038033;28;20405;-60
2023/01/03 02:34:41;;;;;;;0.40;0.25;;;;;;;;;;5047640;28;20052;-59
2023/01/03 02:37:14;;;;;;;0.88;0.20;;;;;;;;;;5048248;28;20056;-64
2023/01/03 02:39:47;;;;;;;0.38;0.20;;;;;;;;;;5050001;28;20130;-61
2023/01/03 02:45:08;;;;;;;0.20;0.20;;;;;;;;;;5044342;28;20045;-59
2023/01/03 02:47:42;;;;;;;0.52;0.25;;;;;;;;;;5049964;28;20053;-63
2023/01/03 02:50:13;;;;;;;0.10;0.10;;;;;;;;;;5044719;28;20049;-60
2023/01/03 02:52:42;;;;;;;1.00;0.38;;;;;;;;;;5047896;28;20108;-60
2023/01/03 02:55:13;;;;;;;0.13;0.13;;;;;;;;;;5047087;28;20048;-60
2023/01/03 02:57:44;;;;;;;0.25;0.25;;;;;;;;;;5054211;28;20140;-60
2023/01/03 03:00:14;;;;;;;0.20;0.20;;;;;;;;;;5046361;28;20045;-60
2023/01/03 03:02:50;;;;;;;0.13;0.13;;;;;;;;;;5046375;28;20049;-59
2023/01/03 03:05:22;;;;;;;0.22;0.22;;;;;;;;;;5045215;28;20053;-60
2023/01/03 03:07:50;;;;;;;0.10;0.10;;;;;;;;;;5044984;28;20453;-60
2023/01/03 03:13:15;;;;;;;0.10;0.10;;;;;;;;;;5045257;28;20513;-60
2023/01/03 03:15:50;;;;;;;0.35;0.28;;;;;;;;;;5052247;28;20056;-60
2023/01/03 03:18:22;;;;;;;1.35;0.20;;;;;;;;;;5051519;28;20056;-60
2023/01/03 03:26:24;;;;;;;2.45;0.20;;;;;;;;;;5053087;28;20060;-60
2023/01/03 03:28:54;;;;;;;0.20;0.20;;;;;;;;;;5049668;28;20045;-60
2023/01/03 03:31:28;;;;;;;0.68;0.35;;;;;;;;;;5053217;28;20049;-60
2023/01/03 03:33:59;;;;;;;0.98;0.20;;;;;;;;;;5056660;28;20049;-60
2023/01/03 03:36:33;;;;;;;0.50;0.28;;;;;;;;;;5049951;28;20055;-59
2023/01/03 03:39:02;;;;;;;0.77;0.70;;;;;;;;;;5047999;28;20523;-60
2023/01/03 03:47:18;;;;;;;0.28;0.20;;;;;;;;;;5053753;28;20509;-59
2023/01/03 03:49:49;;;;;;;0.17;0.17;;;;;;;;;;5048337;28;20440;-60
2023/01/03 03:52:20;;;;;;;0.20;0.20;;;;;;;;;;5049049;28;20040;-60
2023/01/03 03:54:50;;;;;;;0.10;0.10;;;;;;;;;;5047928;28;20049;-60
2023/01/03 03:57:21;;;;;;;0.17;0.17;;;;;;;;;;5049291;28;20099;-60
2023/01/03 03:59:52;;;;;;;0.20;0.20;;;;;;;;;;5052171;28;20049;-59
2023/01/03 04:02:21;;;;;;;0.20;0.10;;;;;;;;;;5047798;28;20045;-60
2023/01/03 04:04:53;;;;;;;0.10;0.10;;;;;;;;;;5048546;28;20062;-59
2023/01/03 04:07:21;;;;;;;0.45;0.45;;;;;;;;;;5050295;28;20044;-59
2023/01/03 04:09:49;;;;;;;4.03;0.47;;;;;;;;;;5048454;28;20481;-60
2023/01/03 04:12:18;;;;;;;0.10;0.10;;;;;;;;;;5049567;28;20049;-60
2023/01/03 04:14:46;;;;;;;0.22;0.22;;;;;;;;;;5051500;28;20052;-60
2023/01/03 04:17:14;;;;;;;0.10;0.10;;;;;;;;;;5052362;28;20564;-59
2023/01/03 04:19:42;;;;;;;0.20;0.20;;;;;;;;;;5042820;28;20037;-60
2023/01/03 04:22:12;;;;;;;0.00;0.00;;;;;;;;;;5050934;28;20045;-59
2023/01/03 04:24:41;;;;;;;0.10;0.10;;;;;;;;;;5050152;28;20387;-60
2023/01/03 04:27:09;;;;;;;0.10;0.10;;;;;;;;;;5050072;28;20516;-59
2023/01/03 04:29:38;;;;;;;0.30;0.30;;;;;;;;;;5043115;28;20055;-60
2023/01/03 04:32:07;;;;;;;0.00;0.00;;;;;;;;;;5050482;28;20063;-59
2023/01/03 04:34:36;;;;;;;0.10;0.10;;;;;;;;;;5048223;28;20429;-59
2023/01/03 04:37:04;;;;;;;0.85;0.30;;;;;;;;;;5051124;28;20063;-59
2023/01/03 04:39:34;;;;;;;0.13;0.13;;;;;;;;;;5052000;28;20048;-59
2023/01/03 04:44:00;;;;;;;0.10;0.10;;;;;;;;;;5044554;28;20041;-60
2023/01/03 04:44:49;;;;;;;0.10;0.10;;;;;;;;;;5046640;28;20048;-59
2023/01/03 04:47:17;;;;;;;0.10;0.10;;;;;;;;;;5052318;28;20049;-60
2023/01/03 04:49:46;;;;;;;0.43;0.20;;;;;;;;;;5046724;28;20053;-59
2023/01/03 04:52:14;;;;;;;0.60;0.40;;;;;;;;;;5041822;28;20045;-60
2023/01/03 04:54:44;;;;;;;0.10;0.10;;;;;;;;;;5051225;28;20052;-60
2023/01/03 04:57:12;;;;;;;0.10;0.10;;;;;;;;;;5048071;28;20043;-59
2023/01/03 04:59:40;;;;;;;0.13;0.13;;;;;;;;;;5049198;28;20498;-60
2023/01/03 05:02:09;;;;;;;0.10;0.10;;;;;;;;;;5048454;28;20049;-60
2023/01/03 05:04:37;;;;;;;0.05;0.05;;;;;;;;;;5050396;28;20072;-60
2023/01/03 05:07:06;;;;;;;3.63;0.70;;;;;;;;;;5047295;28;20132;-60
2023/01/03 05:09:34;;;;;;;0.28;0.22;;;;;;;;;;5046949;28;20057;-60
2023/01/03 05:12:04;;;;;;;0.20;0.20;;;;;;;;;;5049333;28;20045;-60
2023/01/03 05:14:32;;;;;;;0.13;0.13;;;;;;;;;;5050274;28;20051;-60
2023/01/03 05:17:00;;;;;;;0.32;0.32;;;;;;;;;;5046954;28;20049;-60
2023/01/03 05:19:29;;;;;;;0.15;0.15;;;;;;;;;;5050062;28;20509;-59
2023/01/03 05:27:30;;;;;;;0.32;0.32;;;;;;;;;;5050577;28;20102;-60
2023/01/03 05:29:59;;;;;;;0.52;0.43;;;;;;;;;;5046902;28;20391;-58
2023/01/03 05:32:28;;;;;;;0.20;0.20;;;;;;;;;;5049405;28;20056;-60
2023/01/03 05:34:56;;;;;;;1.05;0.30;;;;;;;;;;5050709;28;20288;-60
2023/01/03 05:37:24;;;;;;;0.50;0.13;;;;;;;;;;5045739;28;20385;-60
2023/01/03 05:39:52;;;;;;;0.10;0.10;;;;;;;;;;5050922;28;20044;-59
2023/01/03 05:42:20;;;;;;;1.65;0.38;;;;;;;;;;5044744;28;20469;-60
2023/01/03 05:44:50;;;;;;;0.35;0.28;;;;;;;;;;5045392;28;20053;-60
2023/01/03 05:47:19;;;;;;;0.38;0.10;;;;;;;;;;5048047;28;20489;-60
2023/01/03 05:49:47;;;;;;;0.30;0.30;;;;;;;;;;5048596;28;20409;-59
2023/01/03 05:52:15;;;;;;;0.38;0.30;;;;;;;;;;5041011;28;20049;-60
2023/01/03 05:54:44;;;;;;;0.20;0.17;;;;;;;;;;5043983;28;20049;-60
2023/01/03 05:57:12;;;;;;;0.13;0.13;;;;;;;;;;5047956;28;20055;-60
2023/01/03 05:59:40;;;;;;;0.20;0.20;;;;;;;;;;5046713;28;20044;-60
2023/01/03 06:02:10;;;;;;;1.17;0.25;;;;;;;;;;5049627;28;20365;-60
2023/01/03 06:04:38;;;;;;;0.20;0.20;;;;;;;;;;5045093;28;20061;-60
2023/01/03 06:07:07;;;;;;;1.52;0.30;;;;;;;;;;5043519;28;20117;-60
2023/01/03 06:09:35;;;;;;;0.08;0.08;;;;;;;;;;5044573;28;20084;-60
2023/01/03 06:12:03;;;;;;;0.10;0.10;;;;;;;;;;5047157;28;20379;-59
2023/01/03 06:14:31;;;;;;;0.10;0.10;;;;;;;;;;5049496;28;20048;-60
2023/01/03 06:19:47;;;;;;;1.02;0.47;;;;;;;;;;5048726;28;20041;-60
2023/01/03 06:22:15;;;;;;;0.52;0.40;;;;;;;;;;5046589;28;20059;-61
2023/01/03 06:24:43;;;;;;;0.20;0.20;;;;;;;;;;5051585;28;20383;-61
2023/01/03 06:27:12;;;;;;;0.57;0.57;;;;;;;;;;5047109;28;20041;-62
2023/01/03 06:29:40;;;;;;;0.50;0.30;;;;;;;;;;5040216;28;20037;-61
2023/01/03 06:32:08;;;;;;;1.98;0.63;;;;;;;;;;5047014;28;20496;-61
2023/01/03 06:34:37;;;;;;;1.15;0.22;;;;;;;;;;5050747;28;20496;-61
2023/01/03 06:37:07;;;;;;;0.75;0.50;;;;;;;;;;5049427;28;20243;-61
2023/01/03 06:39:35;;;;;;;0.52;0.17;;;;;;;;;;5048537;28;20053;-61
2023/01/03 06:53:10;;;;;;;0.65;0.20;;;;;;;;;;5049481;28;20051;-60
2023/01/03 06:53:13;;;;;;;0.00;0.00;;;;;;;;;;5041598;28;20047;-62
2023/01/03 06:55:41;;;;;;;0.75;0.40;;;;;;;;;;5042706;28;20060;-62
2023/01/03 06:58:10;;;;;;;0.30;0.20;;;;;;;;;;5049185;28;20045;-61
2023/01/03 07:00:39;;;;;;;0.20;0.20;;;;;;;;;;5046502;28;20063;-61
2023/01/03 07:03:07;;;;;;;0.47;0.28;;;;;;;;;;5046923;28;20516;-61
2023/01/03 07:05:38;;;;;;;0.52;0.25;;;;;;;;;;5047105;28;20057;-62
2023/01/03 07:08:07;;;;;;;0.25;0.25;;;;;;;;;;5048109;28;20073;-61
2023/01/03 07:10:36;;;;;;;1.00;0.57;;;;;;;;;;5042561;28;20041;-61
2023/01/03 07:15:50;;;;;;;1.85;0.40;;;;;;;;;;5044871;28;20040;-63
2023/01/03 07:18:19;;;;;;;1.95;0.32;;;;;;;;;;5037029;28;20057;-63
2023/01/03 07:20:47;;;;;;;0.10;0.10;;;;;;;;;;5044846;28;20056;-63
2023/01/03 07:23:15;;;;;;;1.35;0.30;;;;;;;;;;5046609;28;20493;-62
2023/01/03 07:25:45;;;;;;;0.10;0.10;;;;;;;;;;5044673;28;20057;-63
2023/01/03 07:28:14;;;;;;;0.20;0.20;;;;;;;;;;5044860;28;20469;-63
2023/01/03 07:30:43;;;;;;;0.38;0.38;;;;;;;;;;5046726;28;20048;-63
2023/01/03 07:33:12;;;;;;;0.43;0.28;;;;;;;;;;5048846;28;20044;-63
2023/01/03 07:35:41;;;;;;;0.80;0.22;;;;;;;;;;5046946;28;20136;-63
2023/01/03 07:38:09;;;;;;;2.03;0.50;;;;;;;;;;5042821;28;20056;-63
2023/01/03 07:40:38;;;;;;;0.93;0.45;;;;;;;;;;5046784;28;20041;-63
2023/01/03 07:45:55;;;;;;;0.10;0.10;;;;;;;;;;5043645;28;20044;-63
2023/01/03 07:48:23;;;;;;;1.10;0.43;;;;;;;;;;5045849;28;20045;-63
2023/01/03 07:50:56;;;;;;;0.20;0.20;;;;;;;;;;5047074;28;20424;-62
2023/01/03 07:53:25;;;;;;;1.10;0.30;;;;;;;;;;5046363;28;20071;-63
2023/01/03 07:55:53;;;;;;;0.93;0.50;;;;;;;;;;5045624;28;20052;-62
2023/01/03 07:58:23;;;;;;;0.50;0.35;;;;;;;;;;5050068;28;20045;-63
2023/01/03 08:00:51;;;;;;;1.38;0.50;;;;;;;;;;5052192;28;20132;-62
2023/01/03 08:03:19;;;;;;;0.55;0.38;;;;;;;;;;5045607;28;20063;-63
2023/01/03 08:05:47;;;;;;;0.30;0.30;;;;;;;;;;5046904;28;20064;-62
2023/01/03 08:08:16;;;;;;;0.63;0.40;;;;;;;;;;5048009;28;20044;-63
2023/01/03 08:13:31;;;;;;;0.30;0.30;;;;;;;;;;5047371;28;20500;-62
2023/01/03 08:15:59;;;;;;;0.60;0.57;;;;;;;;;;5046615;28;20056;-63
2023/01/03 08:18:28;;;;;;;1.38;0.52;;;;;;;;;;5045870;28;20620;-62
2023/01/03 08:20:57;;;;;;;0.30;0.30;;;;;;;;;;5051568;28;20037;-63
2023/01/03 08:23:25;;;;;;;0.25;0.25;;;;;;;;;;5047495;28;20469;-63
2023/01/03 08:26:00;;;;;;;1.55;0.57;;;;;;;;;;5053350;28;20045;-62
2023/01/03 08:28:28;;;;;;;0.52;0.43;;;;;;;;;;5047496;28;20064;-63
2023/01/03 08:30:58;;;;;;;0.90;0.43;;;;;;;;;;5060976;28;20064;-62
2023/01/03 08:33:28;;;;;;;0.40;0.30;;;;;;;;;;5049757;28;20494;-62
2023/01/03 08:35:58;;;;;;;0.70;0.43;;;;;;;;;;5053241;28;20396;-62
2023/01/03 08:38:29;;;;;;;0.25;0.25;;;;;;;;;;5051935;28;20076;-63
2023/01/03 08:40:59;;;;;;;0.77;0.40;;;;;;;;;;5048861;28;20053;-63
2023/01/03 08:43:28;;;;;;;0.17;0.17;;;;;;;;;;5041292;28;20049;-63
2023/01/03 08:45:58;;;;;;;0.28;0.28;;;;;;;;;;5048419;28;20041;-63
2023/01/03 08:48:26;;;;;;;0.75;0.50;;;;;;;;;;5046562;28;20140;-62
2023/01/03 08:50:54;;;;;;;0.77;0.45;;;;;;;;;;5048468;28;20045;-63
2023/01/03 08:53:23;;;;;;;1.10;0.88;;;;;;;;;;5041538;28;20135;-63
2023/01/03 08:55:51;;;;;;;1.38;0.57;;;;;;;;;;5043335;28;20124;-62
2023/01/03 08:58:19;;;;;;;1.25;0.28;;;;;;;;;;5049165;28;20049;-62
2023/01/03 09:00:48;;;;;;;0.28;0.28;;;;;;;;;;5049524;28;20051;-63
2023/01/03 09:03:18;;;;;;;1.95;0.60;;;;;;;;;;5046580;28;20091;-63
2023/01/03 09:05:46;;;;;;;0.77;0.47;;;;;;;;;;5047153;28;20049;-63
2023/01/03 09:08:17;;;;;;;1.48;0.40;;;;;;;;;;5050804;28;20497;-62
2023/01/03 09:10:47;;;;;;;1.65;1.05;;;;;;;;;;5043537;28;20509;-62
2023/01/03 09:13:15;;;;;;;0.30;0.30;;;;;;;;;;5047507;28;20055;-62
2023/01/03 09:15:43;;;;;;;0.30;0.25;;;;;;;;;;5048634;28;20048;-62
2023/01/03 09:18:12;;;;;;;3.30;0.30;;;;;;;;;;5048942;28;20049;-62
2023/01/03 09:20:42;;;;;;;1.75;0.73;;;;;;;;;;5044632;28;20508;-62
2023/01/03 09:23:10;;;;;;;0.90;0.47;;;;;;;;;;5046869;28;20037;-62
2023/01/03 09:25:38;;;;;;;0.20;0.20;;;;;;;;;;5045128;28;20489;-62
2023/01/03 09:28:06;;;;;;;0.88;0.30;;;;;;;;;;5037490;28;20053;-63
2023/01/03 09:30:35;;;;;;;0.52;0.40;;;;;;;;;;5045036;28;20052;-63
2023/01/03 09:33:03;;;;;;;0.40;0.28;;;;;;;;;;5036613;28;20124;-62
2023/01/03 09:35:32;;;;;;;1.13;0.73;;;;;;;;;;5048520;28;20099;-63
2023/01/03 09:38:02;;;;;;;0.50;0.35;;;;;;;;;;5047086;28;20071;-62
2023/01/03 09:40:31;;;;;;;0.45;0.40;;;;;;;;;;5043523;28;20481;-62
2023/01/03 09:43:14;;;;;;;0.80;0.68;;;;;;;;;;5049389;28;20160;-62
2023/01/03 09:45:51;;;;;;;0.75;0.47;;;;;;;;;;5050219;28;20053;-62
2023/01/03 09:48:20;;;;;;;1.15;0.77;;;;;;;;;;5048410;28;20067;-62
2023/01/03 09:50:49;;;;;;;0.45;0.45;;;;;;;;;;5044142;28;20102;-62
2023/01/03 10:04:59;;;;;;;0.95;0.35;;;;;;;;;;5042037;28;20049;-62
2023/01/03 10:07:46;;;;;;;2.20;0.90;;;;;;;;;;5044025;28;20478;-61
2023/01/03 10:10:18;;;;;;;0.52;0.43;;;;;;;;;;5045565;28;20052;-61
2023/01/03 10:12:52;;;;;;;0.75;0.55;;;;;;;;;;5048665;28;20072;-61
2023/01/03 10:15:26;;;;;;;1.20;0.40;;;;;;;;;;5047727;28;20440;-61
2023/01/03 10:17:58;;;;;;;0.35;0.35;;;;;;;;;;5045614;28;20102;-61
2023/01/03 10:20:30;;;;;;;1.92;0.50;;;;;;;;;;5048676;28;20049;-61
2023/01/03 10:23:01;;;;;;;1.50;0.50;;;;;;;;;;5042516;28;20547;-61
2023/01/03 10:25:31;;;;;;;0.40;0.30;;;;;;;;;;5044277;28;20049;-61
2023/01/03 10:28:02;;;;;;;0.32;0.32;;;;;;;;;;5043028;28;20057;-61
2023/01/03 10:30:34;;;;;;;0.80;0.80;;;;;;;;;;5038262;28;20493;-61
2023/01/03 10:33:18;;;;;;;1.88;0.57;;;;;;;;;;5041167;28;20136;-61
2023/01/03 10:35:47;;;;;;;1.30;0.47;;;;;;;;;;5044022;28;20049;-61
2023/01/03 10:38:16;;;;;;;0.30;0.20;;;;;;;;;;5047948;28;20494;-61
2023/01/03 10:40:47;;;;;;;0.47;0.38;;;;;;;;;;5042576;28;20084;-61
2023/01/03 10:43:17;;;;;;;12.75;0.73;;;;;;;;;;5044647;28;20143;-60
2023/01/03 10:45:55;;;;;;;0.98;0.30;;;;;;;;;;5042099;28;20060;-61
2023/01/03 10:48:24;;;;;;;0.77;0.50;;;;;;;;;;5044956;28;20114;-61
2023/01/03 10:50:53;;;;;;;1.05;0.50;;;;;;;;;;5046197;28;20037;-61
2023/01/03 10:53:22;;;;;;;2.08;0.65;;;;;;;;;;5048763;28;20051;-61
2023/01/03 10:55:53;;;;;;;0.80;0.55;;;;;;;;;;5044695;28;20557;-61
2023/01/03 10:58:23;;;;;;;1.75;1.08;;;;;;;;;;5050152;28;20057;-60
2023/01/03 11:01:10;;;;;;;2.42;0.65;;;;;;;;;;5043378;28;20045;-61
2023/01/03 11:03:43;;;;;;;1.00;0.45;;;;;;;;;;5048109;28;20049;-60
2023/01/03 11:06:18;;;;;;;0.50;0.45;;;;;;;;;;5043930;28;20122;-60
2023/01/03 11:08:47;;;;;;;2.33;0.82;;;;;;;;;;5043407;28;20052;-63
2023/01/03 11:11:28;;;;;;;0.30;0.30;;;;;;;;;;5048606;28;20489;-63
2023/01/03 11:14:06;;;;;;;1.90;0.52;;;;;;;;;;5046214;28;20052;-62
2023/01/03 11:16:34;;;;;;;2.08;1.23;;;;;;;;;;5040717;28;20059;-63
2023/01/03 11:19:04;;;;;;;1.58;1.10;;;;;;;;;;5052221;28;20052;-61
2023/01/03 11:21:36;;;;;;;2.00;0.70;;;;;;;;;;5044642;28;20076;-61
2023/01/03 11:24:08;;;;;;;2.78;0.70;;;;;;;;;;5045958;28;20405;-61
2023/01/03 11:26:43;;;;;;;0.65;0.32;;;;;;;;;;5043027;28;20128;-61
2023/01/03 11:29:30;;;;;;;1.42;0.82;;;;;;;;;;5045306;28;20076;-60
2023/01/03 11:32:04;;;;;;;1.58;0.80;;;;;;;;;;5010871;28;20517;-61
2023/01/03 11:34:41;;;;;;;1.00;0.60;;;;;;;;;;5060218;28;20045;-61
2023/01/03 11:37:32;;;;;;;0.98;0.47;;;;;;;;;;5057648;28;20786;-60
2023/01/03 11:40:05;;;;;;;0.82;0.52;;;;;;;;;;5049942;28;20068;-61
2023/01/03 11:42:44;;;;;;;0.82;0.57;;;;;;;;;;5045195;28;20417;-61
2023/01/03 11:45:27;;;;;;;0.45;0.45;;;;;;;;;;5050888;28;20179;-60
2023/01/03 11:48:00;;;;;;;10.43;1.25;;;;;;;;;;5042126;28;20151;-61
2023/01/03 11:50:42;;;;;;;1.23;0.77;;;;;;;;;;5040713;28;20057;-60
2023/01/03 11:53:17;;;;;;;3.63;0.77;;;;;;;;;;5051663;28;20045;-60
2023/01/03 11:55:52;;;;;;;0.55;0.47;;;;;;;;;;5052659;28;20436;-61
2023/01/03 11:58:45;;;;;;;1.58;0.40;;;;;;;;;;5048798;28;20051;-60
2023/01/03 12:01:20;;;;;;;1.60;1.27;;;;;;;;;;5035817;28;20402;-61
2023/01/03 12:03:57;;;;;;;0.32;0.22;;;;;;;;;;5050482;28;20048;-61
2023/01/03 12:06:29;;;;;;;0.82;0.60;;;;;;;;;;5047213;28;20049;-60
2023/01/03 12:09:09;;;;;;;1.88;1.00;;;;;;;;;;5051107;28;20057;-60
2023/01/03 12:11:59;;;;;;;2.88;1.13;;;;;;;;;;5039362;28;20044;-60
2023/01/03 12:14:31;;;;;;;3.03;0.70;;;;;;;;;;5050845;28;20131;-61
2023/01/03 12:17:05;;;;;;;0.70;0.50;;;;;;;;;;5053037;28;20155;-60
2023/01/03 12:19:35;;;;;;;2.47;0.63;;;;;;;;;;5051014;28;20059;-61
2023/01/03 12:22:06;;;;;;;1.08;0.98;;;;;;;;;;5050237;28;20052;-61
2023/01/03 12:24:36;;;;;;;3.60;0.63;;;;;;;;;;5050988;28;20056;-61
2023/01/03 12:27:06;;;;;;;1.35;0.65;;;;;;;;;;5049657;28;20057;-61
2023/01/03 12:29:40;;;;;;;1.80;1.10;;;;;;;;;;5044648;28;20416;-64
2023/01/03 12:32:12;;;;;;;0.45;0.38;;;;;;;;;;5046693;28;20075;-62
2023/01/03 12:34:45;;;;;;;1.13;0.40;;;;;;;;;;5048123;28;20056;-61
2023/01/03 12:37:15;;;;;;;2.08;0.80;;;;;;;;;;5047168;28;20132;-61
2023/01/03 12:39:49;;;;;;;0.52;0.40;;;;;;;;;;5045194;28;20052;-61
2023/01/03 12:42:20;;;;;;;0.30;0.30;;;;;;;;;;5037878;28;20163;-61
2023/01/03 12:44:50;;;;;;;1.60;0.50;;;;;;;;;;5046815;28;20494;-61
2023/01/03 12:47:25;;;;;;;0.93;0.50;;;;;;;;;;5044566;28;20052;-61
2023/01/03 12:49:56;;;;;;;1.23;0.77;;;;;;;;;;5045067;28;20072;-61
2023/01/03 12:52:25;;;;;;;0.30;0.30;;;;;;;;;;5046655;28;20228;-61
2023/01/03 12:54:56;;;;;;;2.00;0.73;;;;;;;;;;5054499;28;20095;-62
2023/01/03 12:57:41;;;;;;;1.85;0.57;;;;;;;;;;5049773;28;20083;-62
2023/01/03 13:00:20;;;;;;;2.17;0.68;;;;;;;;;;5041792;28;20440;-61
2023/01/03 13:02:53;;;;;;;0.60;0.40;;;;;;;;;;5045070;28;20102;-62
2023/01/03 13:05:25;;;;;;;0.63;0.35;;;;;;;;;;5045665;28;20064;-62
2023/01/03 13:07:58;;;;;;;2.35;0.55;;;;;;;;;;5047260;28;20049;-62
2023/01/03 13:10:29;;;;;;;1.30;0.50;;;;;;;;;;5043372;28;20061;-62
2023/01/03 13:12:57;;;;;;;0.65;0.40;;;;;;;;;;5049490;28;20078;-62
2023/01/03 13:15:28;;;;;;;1.73;0.63;;;;;;;;;;5049687;28;20063;-61
2023/01/03 13:18:30;;;;;;;1.08;0.47;;;;;;;;;;5050544;28;20042;-62
2023/01/03 13:20:59;;;;;;;0.82;0.52;;;;;;;;;;5045082;28;20057;-62
2023/01/03 13:23:35;;;;;;;2.15;0.57;;;;;;;;;;5047143;28;20041;-62
2023/01/03 13:26:30;;;;;;;1.35;0.88;;;;;;;;;;5038456;28;20536;-61
2023/01/03 13:29:14;;;;;;;1.60;0.73;;;;;;;;;;4995914;28;20060;-61
2023/01/03 13:31:42;;;;;;;0.82;0.60;;;;;;;;;;5047539;28;20041;-62
2023/01/03 13:34:15;;;;;;;0.47;0.28;;;;;;;;;;5045911;28;20084;-62
2023/01/03 13:37:02;;;;;;;1.27;0.60;;;;;;;;;;5049623;28;20429;-62
2023/01/03 13:39:38;;;;;;;0.60;0.60;;;;;;;;;;5043811;28;20059;-62
2023/01/03 13:42:06;;;;;;;1.67;0.70;;;;;;;;;;5048501;28;20049;-62
2023/01/03 13:44:35;;;;;;;1.38;0.57;;;;;;;;;;5041909;28;20231;-62
2023/01/03 13:47:04;;;;;;;2.97;1.05;;;;;;;;;;5044230;28;20102;-62
2023/01/03 13:49:35;;;;;;;1.42;0.38;;;;;;;;;;5046362;28;20053;-62
2023/01/03 13:52:05;;;;;;;0.73;0.60;;;;;;;;;;5045653;28;20049;-62
2023/01/03 13:54:55;;;;;;;0.77;0.70;;;;;;;;;;5049159;28;20180;-61
2023/01/03 13:57:37;;;;;;;0.98;0.68;;;;;;;;;;5041877;28;20064;-61
2023/01/03 14:00:14;;;;;;;3.10;0.82;;;;;;;;;;5042478;28;20053;-62
2023/01/03 14:03:01;;;;;;;1.50;0.60;;;;;;;;;;5043291;28;20037;-65
2023/01/03 14:05:42;;;;;;;1.13;0.50;;;;;;;;;;5045285;28;20057;-61
2023/01/03 14:08:20;;;;;;;3.63;1.02;;;;;;;;;;5043033;28;20055;-62
2023/01/03 14:10:58;;;;;;;1.75;0.60;;;;;;;;;;5046406;28;20048;-61
2023/01/03 14:13:31;;;;;;;2.08;0.60;;;;;;;;;;5040898;28;20136;-61
2023/01/03 14:16:11;;;;;;;0.25;0.22;;;;;;;;;;5043061;28;20060;-62
2023/01/03 14:18:41;;;;;;;0.30;0.30;;;;;;;;;;5042035;28;20049;-62
2023/01/03 14:21:16;;;;;;;0.70;0.43;;;;;;;;;;5045483;28;20049;-61
2023/01/03 14:23:54;;;;;;;0.73;0.73;;;;;;;;;;5044807;28;20041;-61
2023/01/03 14:26:28;;;;;;;0.30;0.30;;;;;;;;;;5045074;28;20049;-61
2023/01/03 14:28:57;;;;;;;0.30;0.30;;;;;;;;;;5044830;28;20804;-62
2023/01/03 14:31:27;;;;;;;0.70;0.47;;;;;;;;;;5045324;28;20079;-62
2023/01/03 14:33:57;;;;;;;0.65;0.45;;;;;;;;;;5044168;28;20805;-62
2023/01/03 14:36:27;;;;;;;2.63;0.93;;;;;;;;;;5045911;28;20065;-62
2023/01/03 14:38:57;;;;;;;0.22;0.22;;;;;;;;;;5044178;28;20349;-62
2023/01/03 14:41:30;;;;;;;0.47;0.43;;;;;;;;;;5045370;28;20578;-62
2023/01/03 14:44:03;;;;;;;1.58;0.57;;;;;;;;;;5044008;28;20456;-61
2023/01/03 14:46:32;;;;;;;0.65;0.43;;;;;;;;;;5047447;28;20135;-61
2023/01/03 14:49:02;;;;;;;0.35;0.30;;;;;;;;;;5040881;28;20353;-61
2023/01/03 14:51:33;;;;;;;0.43;0.35;;;;;;;;;;5042319;28;20055;-62
2023/01/03 14:54:03;;;;;;;0.35;0.25;;;;;;;;;;5045248;28;20041;-62
2023/01/03 14:56:31;;;;;;;0.17;0.17;;;;;;;;;;5044189;28;20049;-62
2023/01/03 14:59:00;;;;;;;0.40;0.40;;;;;;;;;;5039372;28;20049;-62
2023/01/03 15:01:29;;;;;;;0.55;0.55;;;;;;;;;;5040623;28;20148;-62
2023/01/03 15:03:58;;;;;;;0.40;0.40;;;;;;;;;;5044383;28;20057;-62
2023/01/03 15:06:28;;;;;;;2.92;1.00;;;;;;;;;;5044515;28;20049;-62
2023/01/03 15:08:58;;;;;;;0.95;0.43;;;;;;;;;;5043220;28;20051;-62
2023/01/03 15:11:31;;;;;;;1.40;0.43;;;;;;;;;;5048429;28;20111;-61
2023/01/03 15:14:02;;;;;;;1.40;0.80;;;;;;;;;;5049209;28;20441;-62
2023/01/03 15:16:32;;;;;;;1.05;0.60;;;;;;;;;;5043692;28;20132;-62
2023/01/03 15:19:08;;;;;;;2.78;0.90;;;;;;;;;;5044488;28;20551;-62
2023/01/03 15:21:36;;;;;;;1.10;0.70;;;;;;;;;;5047190;28;20053;-62
2023/01/03 15:24:12;;;;;;;0.40;0.40;;;;;;;;;;5050051;28;20084;-63
2023/01/03 15:26:42;;;;;;;0.40;0.40;;;;;;;;;;5041437;28;20133;-62
2023/01/03 15:29:13;;;;;;;2.03;0.90;;;;;;;;;;5048946;28;20060;-63
2023/01/03 15:31:49;;;;;;;1.15;0.77;;;;;;;;;;5047676;28;20045;-62
2023/01/03 15:34:18;;;;;;;0.63;0.57;;;;;;;;;;5047223;28;20516;-62
2023/01/03 15:36:48;;;;;;;2.33;0.60;;;;;;;;;;5049034;28;20049;-62
2023/01/03 15:39:19;;;;;;;0.75;0.75;;;;;;;;;;5047569;28;20068;-62
2023/01/03 15:44:55;;;;;;;0.60;0.50;;;;;;;;;;5043132;28;20044;-62
2023/01/03 15:47:25;;;;;;;0.40;0.40;;;;;;;;;;5042474;28;20457;-62
2023/01/03 15:49:55;;;;;;;1.10;1.00;;;;;;;;;;5045703;28;20149;-63
2023/01/03 15:52:23;;;;;;;0.95;0.38;;;;;;;;;;5049395;28;20386;-62
2023/01/03 15:54:53;;;;;;;1.83;0.63;;;;;;;;;;5045080;28;20053;-62
2023/01/03 15:57:22;;;;;;;1.40;0.50;;;;;;;;;;5046234;28;20045;-62
2023/01/03 15:59:53;;;;;;;1.90;0.52;;;;;;;;;;5046470;28;20059;-62
2023/01/03 16:02:23;;;;;;;1.10;0.60;;;;;;;;;;5057147;28;20055;-62
2023/01/03 16:04:52;;;;;;;0.75;0.50;;;;;;;;;;5043820;28;20056;-62
2023/01/03 16:07:20;;;;;;;1.70;0.75;;;;;;;;;;5047592;28;20045;-62
2023/01/03 16:09:49;;;;;;;1.85;0.60;;;;;;;;;;5041351;28;20057;-62